sensor_id;sensor_type;location;lat;lon;timestamp;pressure;altitude;pressure_sealevel;temperature;humidity
52469;BME280;38381;53.688;10.776;2022-09-03T00:00:15;101533.22;;;16.13;59.61
52469;BME280;38381;53.688;10.776;2022-09-03T00:11:09;101532.34;;;16.09;59.48
52469;BME280;38381;53.688;10.776;2022-09-03T00:16:14;101537.56;;;16.17;59.09
52469;BME280;38381;53.688;10.776;2022-09-03T00:21:32;101536.72;;;16.09;58.95
52469;BME280;38381;53.688;10.776;2022-09-03T00:26:36;101547.22;;;16.06;59.11
52469;BME280;38381;53.688;10.776;2022-09-03T00:31:51;101534.94;;;16.17;58.06
52469;BME280;38381;53.688;10.776;2022-09-03T00:36:53;101541.91;;;16.15;57.80
52469;BME280;38381;53.688;10.776;2022-09-03T00:47:44;101527.09;;;16.19;57.30
52469;BME280;38381;53.688;10.776;2022-09-03T00:53:10;101527.09;;;16.16;56.88
52469;BME280;38381;53.688;10.776;2022-09-03T01:04:19;101525.38;;;16.07;57.62
52469;BME280;38381;53.688;10.776;2022-09-03T01:20:26;101522.78;;;16.10;57.41
52469;BME280;38381;53.688;10.776;2022-09-03T01:25:52;101539.34;;;16.01;58.04
52469;BME280;38381;53.688;10.776;2022-09-03T01:31:10;101524.56;;;15.96;58.28
52469;BME280;38381;53.688;10.776;2022-09-03T01:36:19;101535.94;;;15.85;58.37
52469;BME280;38381;53.688;10.776;2022-09-03T01:52:49;101527.25;;;15.77;58.29
52469;BME280;38381;53.688;10.776;2022-09-03T01:57:59;101528.97;;;15.87;57.88
52469;BME280;38381;53.688;10.776;2022-09-03T02:03:03;101523.69;;;15.89;57.34
52469;BME280;38381;53.688;10.776;2022-09-03T02:08:07;101531.56;;;15.84;57.61
52469;BME280;38381;53.688;10.776;2022-09-03T02:13:13;101535.09;;;15.77;57.49
52469;BME280;38381;53.688;10.776;2022-09-03T02:18:18;101533.34;;;15.79;57.31
52469;BME280;38381;53.688;10.776;2022-09-03T02:23:21;101529.84;;;15.83;57.55
52469;BME280;38381;53.688;10.776;2022-09-03T02:28:22;101525.47;;;15.76;57.92
52469;BME280;38381;53.688;10.776;2022-09-03T02:33:23;101524.63;;;15.74;57.88
52469;BME280;38381;53.688;10.776;2022-09-03T02:38:25;101520.25;;;15.76;57.42
52469;BME280;38381;53.688;10.776;2022-09-03T02:43:38;101520.22;;;15.68;57.53
52469;BME280;38381;53.688;10.776;2022-09-03T02:48:40;101520.25;;;15.64;57.21
52469;BME280;38381;53.688;10.776;2022-09-03T02:53:41;101522.84;;;15.68;56.76
52469;BME280;38381;53.688;10.776;2022-09-03T02:58:42;101518.50;;;15.67;56.80
52469;BME280;38381;53.688;10.776;2022-09-03T03:03:42;101515.91;;;15.63;56.27
52469;BME280;38381;53.688;10.776;2022-09-03T03:08:42;101518.50;;;15.58;56.20
52469;BME280;38381;53.688;10.776;2022-09-03T03:13:44;101512.44;;;15.45;56.61
52469;BME280;38381;53.688;10.776;2022-09-03T03:18:45;101516.81;;;15.45;56.44
52469;BME280;38381;53.688;10.776;2022-09-03T03:23:45;101526.41;;;15.44;56.44
52469;BME280;38381;53.688;10.776;2022-09-03T03:28:46;101527.28;;;15.34;56.86
52469;BME280;38381;53.688;10.776;2022-09-03T03:33:52;101522.06;;;15.28;56.80
52469;BME280;38381;53.688;10.776;2022-09-03T03:38:55;101520.31;;;15.25;56.81
52469;BME280;38381;53.688;10.776;2022-09-03T03:43:57;101519.44;;;15.25;56.75
52469;BME280;38381;53.688;10.776;2022-09-03T03:48:58;101531.63;;;15.15;56.85
52469;BME280;38381;53.688;10.776;2022-09-03T03:53:59;101528.16;;;15.10;57.07
52469;BME280;38381;53.688;10.776;2022-09-03T03:59:00;101528.16;;;15.07;56.71
52469;BME280;38381;53.688;10.776;2022-09-03T04:04:00;101532.50;;;14.96;57.33
52469;BME280;38381;53.688;10.776;2022-09-03T04:09:00;101532.50;;;14.86;57.14
52469;BME280;38381;53.688;10.776;2022-09-03T04:14:01;101531.63;;;14.83;57.26
52469;BME280;38381;53.688;10.776;2022-09-03T04:19:01;101530.72;;;14.70;57.65
52469;BME280;38381;53.688;10.776;2022-09-03T04:24:03;101543.81;;;14.68;57.71
52469;BME280;38381;53.688;10.776;2022-09-03T04:29:06;101542.06;;;14.64;57.76
52469;BME280;38381;53.688;10.776;2022-09-03T04:34:06;101540.28;;;14.59;58.12
52469;BME280;38381;53.688;10.776;2022-09-03T04:39:07;101537.69;;;14.59;57.80
52469;BME280;38381;53.688;10.776;2022-09-03T04:44:07;101535.94;;;14.56;58.02
52469;BME280;38381;53.688;10.776;2022-09-03T04:49:07;101534.13;;;14.47;57.97
52469;BME280;38381;53.688;10.776;2022-09-03T04:54:09;101538.50;;;14.53;57.80
52469;BME280;38381;53.688;10.776;2022-09-03T04:59:10;101535.00;;;14.51;57.83
52469;BME280;38381;53.688;10.776;2022-09-03T05:04:10;101542.03;;;14.63;57.26
52469;BME280;38381;53.688;10.776;2022-09-03T05:09:10;101550.72;;;14.57;57.59
52469;BME280;38381;53.688;10.776;2022-09-03T05:14:10;101541.13;;;14.55;57.76
52469;BME280;38381;53.688;10.776;2022-09-03T05:19:11;101546.41;;;14.62;57.48
52469;BME280;38381;53.688;10.776;2022-09-03T05:24:12;101532.47;;;14.68;57.55
52469;BME280;38381;53.688;10.776;2022-09-03T05:29:14;101535.97;;;14.68;57.59
52469;BME280;38381;53.688;10.776;2022-09-03T05:34:15;101533.34;;;14.76;57.34
52469;BME280;38381;53.688;10.776;2022-09-03T05:39:15;101531.63;;;14.80;57.43
52469;BME280;38381;53.688;10.776;2022-09-03T05:44:15;101532.50;;;14.83;57.25
52469;BME280;38381;53.688;10.776;2022-09-03T05:49:16;101536.84;;;14.92;56.91
52469;BME280;38381;53.688;10.776;2022-09-03T05:54:16;101538.59;;;14.90;56.97
52469;BME280;38381;53.688;10.776;2022-09-03T05:59:16;101547.31;;;15.04;56.48
52469;BME280;38381;53.688;10.776;2022-09-03T06:04:17;101556.03;;;15.16;56.61
52469;BME280;38381;53.688;10.776;2022-09-03T06:09:20;101554.28;;;15.08;56.92
52469;BME280;38381;53.688;10.776;2022-09-03T06:14:20;101549.94;;;15.31;56.21
52469;BME280;38381;53.688;10.776;2022-09-03T06:19:22;101547.31;;;15.21;56.68
52469;BME280;38381;53.688;10.776;2022-09-03T06:24:22;101541.25;;;15.24;56.59
52469;BME280;38381;53.688;10.776;2022-09-03T06:29:22;101541.22;;;15.39;55.85
52469;BME280;38381;53.688;10.776;2022-09-03T06:34:23;101546.44;;;15.48;56.09
52469;BME280;38381;53.688;10.776;2022-09-03T06:39:25;101549.06;;;15.42;56.29
52469;BME280;38381;53.688;10.776;2022-09-03T06:44:26;101542.94;;;15.74;55.32
52469;BME280;38381;53.688;10.776;2022-09-03T06:49:26;101548.16;;;15.60;55.52
52469;BME280;38381;53.688;10.776;2022-09-03T06:54:26;101559.47;;;15.82;55.10
52469;BME280;38381;53.688;10.776;2022-09-03T06:59:26;101565.53;;;15.89;55.24
52469;BME280;38381;53.688;10.776;2022-09-03T07:04:27;101569.03;;;15.94;54.94
52469;BME280;38381;53.688;10.776;2022-09-03T07:09:27;101566.44;;;15.96;55.40
52469;BME280;38381;53.688;10.776;2022-09-03T07:14:27;101565.53;;;16.04;54.89
52469;BME280;38381;53.688;10.776;2022-09-03T07:19:28;101569.00;;;16.06;55.04
52469;BME280;38381;53.688;10.776;2022-09-03T07:24:28;101557.66;;;16.12;55.33
52469;BME280;38381;53.688;10.776;2022-09-03T07:29:28;101565.38;;;16.43;54.52
52469;BME280;38381;53.688;10.776;2022-09-03T07:34:29;101560.97;;;16.51;54.18
52469;BME280;38381;53.688;10.776;2022-09-03T07:39:29;101559.91;;;16.83;53.90
52469;BME280;38381;53.688;10.776;2022-09-03T07:44:29;101555.50;;;16.94;53.93
52469;BME280;38381;53.688;10.776;2022-09-03T07:49:30;101552.78;;;17.03;53.85
52469;BME280;38381;53.688;10.776;2022-09-03T07:54:30;101549.09;;;17.26;52.29
52469;BME280;38381;53.688;10.776;2022-09-03T07:59:30;101541.06;;;17.46;52.47
52469;BME280;38381;53.688;10.776;2022-09-03T08:04:31;101547.00;;;17.65;51.75
52469;BME280;38381;53.688;10.776;2022-09-03T08:09:32;101549.44;;;17.85;52.40
52469;BME280;38381;53.688;10.776;2022-09-03T08:14:33;101543.91;;;18.08;51.10
52469;BME280;38381;53.688;10.776;2022-09-03T08:19:33;101546.31;;;18.26;50.24
52469;BME280;38381;53.688;10.776;2022-09-03T08:24:33;101542.50;;;18.49;49.66
52469;BME280;38381;53.688;10.776;2022-09-03T08:29:34;101539.59;;;18.69;48.97
52469;BME280;38381;53.688;10.776;2022-09-03T08:34:35;101537.75;;;18.76;49.08
52469;BME280;38381;53.688;10.776;2022-09-03T08:39:36;101541.88;;;18.95;48.24
52469;BME280;38381;53.688;10.776;2022-09-03T08:55:16;101550.44;;;19.56;47.25
52469;BME280;38381;53.688;10.776;2022-09-03T09:00:18;101541.66;;;19.59;46.33
52469;BME280;38381;53.688;10.776;2022-09-03T09:11:14;101537.75;;;19.81;45.38
52469;BME280;38381;53.688;10.776;2022-09-03T09:21:29;101537.16;;;20.10;44.63
52469;BME280;38381;53.688;10.776;2022-09-03T09:26:32;101523.50;;;20.32;44.44
52469;BME280;38381;53.688;10.776;2022-09-03T09:31:32;101526.84;;;20.40;44.95
52469;BME280;38381;53.688;10.776;2022-09-03T09:36:51;101526.63;;;20.51;44.14
52469;BME280;38381;53.688;10.776;2022-09-03T09:41:59;101521.69;;;20.76;43.61
52469;BME280;38381;53.688;10.776;2022-09-03T09:47:29;101523.50;;;20.73;42.04
52469;BME280;38381;53.688;10.776;2022-09-03T09:52:30;101515.72;;;20.68;40.99
52469;BME280;38381;53.688;10.776;2022-09-03T09:57:30;101514.56;;;20.80;41.12
52469;BME280;38381;53.688;10.776;2022-09-03T10:02:33;101508.91;;;20.95;41.04
52469;BME280;38381;53.688;10.776;2022-09-03T10:07:34;101511.69;;;21.25;40.50
52469;BME280;38381;53.688;10.776;2022-09-03T10:12:41;101504.59;;;21.27;38.36
52469;BME280;38381;53.688;10.776;2022-09-03T10:22:53;101491.28;;;21.32;40.02
52469;BME280;38381;53.688;10.776;2022-09-03T10:27:54;101487.03;;;21.59;37.36
52469;BME280;38381;53.688;10.776;2022-09-03T10:33:16;101494.25;;;21.54;36.77
52469;BME280;38381;53.688;10.776;2022-09-03T10:43:51;101485.97;;;21.66;34.78
52469;BME280;38381;53.688;10.776;2022-09-03T10:49:18;101469.03;;;21.73;35.07
52469;BME280;38381;53.688;10.776;2022-09-03T11:05:22;101464.03;;;21.31;35.75
52469;BME280;38381;53.688;10.776;2022-09-03T11:10:31;101465.69;;;21.35;35.34
52469;BME280;38381;53.688;10.776;2022-09-03T11:15:36;101460.16;;;21.10;35.68
52469;BME280;38381;53.688;10.776;2022-09-03T11:20:37;101464.88;;;21.32;36.37
52469;BME280;38381;53.688;10.776;2022-09-03T11:25:47;101458.34;;;21.78;35.55
52469;BME280;38381;53.688;10.776;2022-09-03T11:36:12;101445.44;;;21.67;35.51
52469;BME280;38381;53.688;10.776;2022-09-03T11:51:31;101443.56;;;21.72;34.81
52469;BME280;38381;53.688;10.776;2022-09-03T11:56:34;101437.25;;;21.12;35.77
52469;BME280;38381;53.688;10.776;2022-09-03T12:01:36;101428.56;;;21.41;35.35
52469;BME280;38381;53.688;10.776;2022-09-03T12:17:57;101420.88;;;21.32;35.23
52469;BME280;38381;53.688;10.776;2022-09-03T12:23:31;101423.34;;;21.71;34.50
52469;BME280;38381;53.688;10.776;2022-09-03T12:28:36;101411.66;;;21.48;34.65
52469;BME280;38381;53.688;10.776;2022-09-03T12:33:40;101406.78;;;21.66;34.03
52469;BME280;38381;53.688;10.776;2022-09-03T12:38:41;101415.25;;;21.46;34.37
52469;BME280;38381;53.688;10.776;2022-09-03T12:43:50;101410.44;;;21.60;34.23
52469;BME280;38381;53.688;10.776;2022-09-03T12:49:03;101399.25;;;21.52;34.53
52469;BME280;38381;53.688;10.776;2022-09-03T12:54:05;101396.91;;;21.73;34.19
52469;BME280;38381;53.688;10.776;2022-09-03T12:59:12;101402.09;;;21.44;34.16
52469;BME280;38381;53.688;10.776;2022-09-03T13:04:18;101389.00;;;21.71;34.21
52469;BME280;38381;53.688;10.776;2022-09-03T13:09:23;101385.13;;;21.53;34.28
52469;BME280;38381;53.688;10.776;2022-09-03T13:14:25;101389.34;;;20.96;34.12
52469;BME280;38381;53.688;10.776;2022-09-03T13:25:11;101387.03;;;21.49;34.28
52469;BME280;38381;53.688;10.776;2022-09-03T13:30:21;101385.50;;;21.70;34.00
52469;BME280;38381;53.688;10.776;2022-09-03T13:40:44;101378.47;;;21.99;33.00
52469;BME280;38381;53.688;10.776;2022-09-03T13:45:57;101370.41;;;22.32;33.38
52469;BME280;38381;53.688;10.776;2022-09-03T13:51:28;101375.09;;;21.94;33.21
52469;BME280;38381;53.688;10.776;2022-09-03T14:01:54;101380.31;;;22.25;32.96
52469;BME280;38381;53.688;10.776;2022-09-03T14:07:02;101367.31;;;22.18;32.90
52469;BME280;38381;53.688;10.776;2022-09-03T14:12:33;101368.06;;;22.49;32.74
52469;BME280;38381;53.688;10.776;2022-09-03T14:17:45;101373.25;;;22.53;31.95
52469;BME280;38381;53.688;10.776;2022-09-03T14:23:02;101367.19;;;22.21;32.26
52469;BME280;38381;53.688;10.776;2022-09-03T14:28:28;101360.09;;;22.51;32.31
52469;BME280;38381;53.688;10.776;2022-09-03T14:44:25;101370.38;;;22.34;34.13
52469;BME280;38381;53.688;10.776;2022-09-03T14:55:12;101369.72;;;21.97;35.25
52469;BME280;38381;53.688;10.776;2022-09-03T15:00:32;101364.91;;;22.10;35.36
52469;BME280;38381;53.688;10.776;2022-09-03T15:11:20;101368.56;;;22.06;35.17
52469;BME280;38381;53.688;10.776;2022-09-03T15:16:28;101372.69;;;22.15;35.04
52469;BME280;38381;53.688;10.776;2022-09-03T15:26:52;101370.19;;;21.82;34.60
52469;BME280;38381;53.688;10.776;2022-09-03T15:37:17;101362.19;;;21.85;34.09
52469;BME280;38381;53.688;10.776;2022-09-03T15:42:25;101367.50;;;21.83;35.17
52469;BME280;38381;53.688;10.776;2022-09-03T15:58:27;101377.34;;;21.48;35.54
52469;BME280;38381;53.688;10.776;2022-09-03T16:03:55;101377.31;;;21.19;36.16
52469;BME280;38381;53.688;10.776;2022-09-03T16:09:07;101373.25;;;21.37;36.21
52469;BME280;38381;53.688;10.776;2022-09-03T16:14:18;101381.00;;;21.12;36.80
52469;BME280;38381;53.688;10.776;2022-09-03T16:19:36;101375.69;;;21.13;36.86
52469;BME280;38381;53.688;10.776;2022-09-03T16:25:03;101395.16;;;21.09;37.14
52469;BME280;38381;53.688;10.776;2022-09-03T16:46:03;101391.03;;;20.64;37.42
52469;BME280;38381;53.688;10.776;2022-09-03T16:51:31;101383.28;;;20.57;37.85
52469;BME280;38381;53.688;10.776;2022-09-03T16:56:45;101388.38;;;20.66;37.84
52469;BME280;38381;53.688;10.776;2022-09-03T17:07:21;101388.69;;;20.52;37.94
52469;BME280;38381;53.688;10.776;2022-09-03T17:18:03;101389.97;;;20.36;38.24
52469;BME280;38381;53.688;10.776;2022-09-03T17:29:00;101392.19;;;20.15;38.40
52469;BME280;38381;53.688;10.776;2022-09-03T17:34:14;101398.59;;;20.05;39.13
52469;BME280;38381;53.688;10.776;2022-09-03T17:45:06;101401.78;;;19.79;39.56
52469;BME280;38381;53.688;10.776;2022-09-03T18:00:21;101416.38;;;19.50;40.02
52469;BME280;38381;53.688;10.776;2022-09-03T18:05:29;101419.13;;;19.45;40.28
52469;BME280;38381;53.688;10.776;2022-09-03T18:21:24;101434.81;;;19.03;41.41
52469;BME280;38381;53.688;10.776;2022-09-03T18:26:50;101432.38;;;18.93;41.84
52469;BME280;38381;53.688;10.776;2022-09-03T18:32:11;101445.69;;;18.82;42.36
52469;BME280;38381;53.688;10.776;2022-09-03T18:37:30;101460.63;;;18.80;42.17
52469;BME280;38381;53.688;10.776;2022-09-03T18:43:23;101459.16;;;18.60;42.73
52469;BME280;38381;53.688;10.776;2022-09-03T19:05:29;101474.56;;;18.23;44.73
52469;BME280;38381;53.688;10.776;2022-09-03T19:11:05;101479.13;;;18.10;44.69
52469;BME280;38381;53.688;10.776;2022-09-03T19:16:42;101490.56;;;18.07;45.02
52469;BME280;38381;53.688;10.776;2022-09-03T19:22:08;101498.66;;;17.87;46.04
52469;BME280;38381;53.688;10.776;2022-09-03T19:27:35;101492.69;;;17.72;46.21
52469;BME280;38381;53.688;10.776;2022-09-03T19:33:13;101505.00;;;17.66;46.67
52469;BME280;38381;53.688;10.776;2022-09-03T19:38:48;101502.44;;;17.60;48.32
52469;BME280;38381;53.688;10.776;2022-09-03T19:55:29;101511.38;;;17.41;52.51
52469;BME280;38381;53.688;10.776;2022-09-03T20:00:49;101508.84;;;17.33;53.54
52469;BME280;38381;53.688;10.776;2022-09-03T20:06:08;101507.09;;;17.34;54.62
52469;BME280;38381;53.688;10.776;2022-09-03T20:11:29;101509.72;;;17.32;55.42
52469;BME280;38381;53.688;10.776;2022-09-03T20:16:55;101515.03;;;17.26;56.58
52469;BME280;38381;53.688;10.776;2022-09-03T20:22:30;101512.47;;;17.18;58.17
52469;BME280;38381;53.688;10.776;2022-09-03T20:43:44;101526.53;;;17.09;59.54
52469;BME280;38381;53.688;10.776;2022-09-03T20:49:10;101530.00;;;17.10;60.02
52469;BME280;38381;53.688;10.776;2022-09-03T20:54:21;101538.88;;;16.98;60.71
52469;BME280;38381;53.688;10.776;2022-09-03T21:15:07;101535.44;;;16.88;62.00
52469;BME280;38381;53.688;10.776;2022-09-03T21:20:34;101531.16;;;16.74;62.60
52469;BME280;38381;53.688;10.776;2022-09-03T21:25:44;101539.88;;;16.74;62.88
52469;BME280;38381;53.688;10.776;2022-09-03T21:30:47;101543.47;;;16.59;62.94
52469;BME280;38381;53.688;10.776;2022-09-03T21:35:57;101544.25;;;16.72;63.22
52469;BME280;38381;53.688;10.776;2022-09-03T21:41:20;101534.72;;;16.60;63.62
52469;BME280;38381;53.688;10.776;2022-09-03T21:47:01;101533.91;;;16.47;64.20
52469;BME280;38381;53.688;10.776;2022-09-03T21:52:13;101545.25;;;16.46;64.11
52469;BME280;38381;53.688;10.776;2022-09-03T21:58:16;101552.19;;;16.58;64.17
52469;BME280;38381;53.688;10.776;2022-09-03T22:02:57;101563.59;;;16.46;64.38
52469;BME280;38381;53.688;10.776;2022-09-03T22:13:30;101555.75;;;16.45;64.44
52469;BME280;38381;53.688;10.776;2022-09-03T22:18:31;101552.31;;;16.34;64.62
52469;BME280;38381;53.688;10.776;2022-09-03T22:34:57;101558.44;;;16.29;65.11
52469;BME280;38381;53.688;10.776;2022-09-03T22:40:33;101559.28;;;16.30;65.00
52469;BME280;38381;53.688;10.776;2022-09-03T22:45:43;101557.56;;;16.27;64.98
52469;BME280;38381;53.688;10.776;2022-09-03T22:50:58;101557.56;;;16.27;65.02
52469;BME280;38381;53.688;10.776;2022-09-03T22:56:15;101561.06;;;16.29;65.09
52469;BME280;38381;53.688;10.776;2022-09-03T23:01:26;101557.59;;;16.24;65.22
52469;BME280;38381;53.688;10.776;2022-09-03T23:06:35;101567.19;;;16.19;65.31
52469;BME280;38381;53.688;10.776;2022-09-03T23:11:41;101568.09;;;16.15;65.57
52469;BME280;38381;53.688;10.776;2022-09-03T23:16:54;101563.75;;;16.14;65.56
52469;BME280;38381;53.688;10.776;2022-09-03T23:22:00;101571.63;;;16.06;65.88
52469;BME280;38381;53.688;10.776;2022-09-03T23:27:06;101566.41;;;15.99;65.93
52469;BME280;38381;53.688;10.776;2022-09-03T23:32:09;101567.28;;;16.02;65.50
52469;BME280;38381;53.688;10.776;2022-09-03T23:53:08;101562.97;;;15.81;65.94
52469;BME280;38381;53.688;10.776;2022-09-03T23:58:23;101573.44;;;15.78;66.13
